Manila, Philippines
Current Conditions -  °F | °C
As of 1:00 PM on Friday 28 Nov 2014 (Local Time) from RPLL Reporting Station
Scattered Clouds Scattered Clouds  
Wind Chill: 90°   Ceiling: Unl
Heat Index: 98°   Visibility: 6mi
Dew Point: 73°   Wind: 13mph
Humidity: 59%   Direction: 100°E
Pressure: 29.83"   Gusts: NA
Location:  14.62°N, 120.97°E
Report Text: RPLL 280500Z 10011KT 060V190 9999 FEW025 SCT300 32/23 Q1010 NOSIG RMK A2983
Loading
Personal Weather Stations






























Interactive Weather Map New forecast layout! Learn more

10-Day Weather Forecast

Advertisements
Track Severe Weather on mobile